Time;durP1;ratioP1;P1;durP2;ratioP2;P2;SDS_P1;SDS_P2;PMS_P1;PMS_P2;Temp;Humidity;BMP_temperature;BMP_pressure;BME280_temperature;BME280_humidity;BME280_pressure;Samples;Min_cycle;Max_cycle;Signal;HPM_P1;HPM_P2
2022/11/10 00:00:30;;;;;;;14.80;3.72;;;;;;;9.24;96.05;101617.28;5081104;28;20036;-58
2022/11/10 00:03:03;;;;;;;16.55;3.75;;;;;;;9.22;95.86;101623.69;5084495;28;20085;-59
2022/11/10 00:05:29;;;;;;;13.90;3.88;;;;;;;9.22;95.93;101629.81;5079737;28;20494;-61
2022/11/10 00:07:55;;;;;;;15.23;4.00;;;;;;;9.21;95.99;101622.00;5083061;28;20032;-59
2022/11/10 00:10:20;;;;;;;18.45;3.85;;;;;;;9.21;96.54;101628.13;5082668;28;20040;-57
2022/11/10 00:12:46;;;;;;;17.92;4.00;;;;;;;9.20;96.58;101633.56;5079829;28;20024;-60
2022/11/10 00:17:55;;;;;;;16.35;3.67;;;;;;;9.21;96.30;101636.06;5084796;28;20082;-58
2022/11/10 00:20:20;;;;;;;13.25;3.70;;;;;;;9.17;96.56;101624.06;5083612;28;20115;-59
2022/11/10 00:22:45;;;;;;;14.07;3.70;;;;;;;9.14;96.38;101621.72;5077615;28;20051;-59
2022/11/10 00:25:11;;;;;;;16.05;4.20;;;;;;;9.12;96.53;101628.91;5083426;28;20040;-58
2022/11/10 00:27:37;;;;;;;16.10;4.53;;;;;;;9.11;96.83;101624.59;5082284;28;20070;-57
2022/11/10 00:30:03;;;;;;;19.25;3.97;;;;;;;9.13;96.84;101630.63;5086840;28;20431;-57
2022/11/10 00:32:28;;;;;;;16.30;4.20;;;;;;;9.08;96.52;101633.63;5078229;28;20085;-58
2022/11/10 00:34:53;;;;;;;19.10;4.57;;;;;;;9.09;97.01;101634.50;5077872;28;20032;-58
2022/11/10 00:37:19;;;;;;;14.63;3.85;;;;;;;9.09;97.15;101637.13;5082509;28;20035;-58
2022/11/10 00:39:44;;;;;;;15.65;3.85;;;;;;;9.07;96.97;101649.66;5081315;28;20565;-57
2022/11/10 00:42:10;;;;;;;20.98;4.25;;;;;;;9.13;96.28;101655.25;5085627;28;20074;-57
2022/11/10 00:44:35;;;;;;;15.95;4.38;;;;;;;9.05;96.70;101654.22;5085784;28;20052;-60
2022/11/10 00:47:00;;;;;;;15.88;4.18;;;;;;;9.05;97.12;101654.22;5084656;28;20111;-58
2022/11/10 00:49:26;;;;;;;19.80;4.53;;;;;;;9.04;97.46;101656.06;5079193;28;20032;-59
2022/11/10 00:51:52;;;;;;;18.75;4.22;;;;;;;9.08;97.01;101659.28;5086112;28;20074;-60
2022/11/10 00:54:18;;;;;;;15.02;4.43;;;;;;;9.06;97.11;101663.84;5085191;28;20031;-58
2022/11/10 00:56:43;;;;;;;15.07;3.55;;;;;;;9.01;97.54;101659.81;5085510;28;20391;-60
2022/11/10 00:59:08;;;;;;;16.50;4.53;;;;;;;9.00;97.46;101658.13;5083927;28;20024;-58
2022/11/10 01:01:33;;;;;;;15.40;4.10;;;;;;;9.04;97.35;101652.56;5086086;28;20103;-58
2022/11/10 01:03:59;;;;;;;15.40;3.85;;;;;;;9.00;97.40;101652.84;5081163;28;20035;-58
2022/11/10 01:06:24;;;;;;;21.08;4.20;;;;;;;9.00;97.62;101658.13;5077918;28;20043;-58
2022/11/10 01:08:49;;;;;;;15.88;3.95;;;;;;;9.08;96.92;101664.56;5084614;28;20067;-57
2022/11/10 01:11:25;;;;;;;19.17;4.00;;;;;;;9.09;97.85;101664.41;5084749;28;20050;-58
2022/11/10 01:13:52;;;;;;;18.55;4.00;;;;;;;9.02;97.52;101660.63;5083502;28;20054;-58
2022/11/10 01:16:20;;;;;;;20.98;4.70;;;;;;;8.99;97.54;101661.72;5084266;28;20423;-60
2022/11/10 01:18:51;;;;;;;16.20;4.00;;;;;;;8.99;97.90;101667.00;5078382;28;20032;-59
2022/11/10 01:21:16;;;;;;;15.45;3.92;;;;;;;8.98;97.37;101672.47;5084732;28;20030;-59
2022/11/10 01:23:42;;;;;;;22.83;4.25;;;;;;;8.97;97.63;101674.25;5077208;28;20029;-60
2022/11/10 01:26:08;;;;;;;16.30;4.13;;;;;;;8.96;97.63;101687.59;5085486;28;20035;-58
2022/11/10 01:28:34;;;;;;;18.83;3.70;;;;;;;8.94;97.99;101690.38;5080167;28;20498;-58
2022/11/10 01:31:02;;;;;;;15.10;3.78;;;;;;;8.92;98.17;101702.91;5084540;28;20039;-58
2022/11/10 01:33:28;;;;;;;18.30;4.60;;;;;;;8.93;98.39;101698.47;5085597;28;20371;-58
2022/11/10 01:35:53;;;;;;;17.13;4.30;;;;;;;8.93;98.01;101704.56;5084266;28;20028;-60
2022/11/10 01:38:19;;;;;;;20.33;4.40;;;;;;;8.90;98.21;101702.19;5083688;28;20032;-57
2022/11/10 01:40:44;;;;;;;21.20;3.78;;;;;;;8.89;98.14;101705.81;5084806;28;20032;-58
2022/11/10 01:43:10;;;;;;;18.42;4.13;;;;;;;8.90;98.26;101707.50;5085729;28;20058;-58
2022/11/10 01:45:48;;;;;;;24.35;4.40;;;;;;;8.91;98.48;101701.22;5083288;28;20081;-58
2022/11/10 01:48:35;;;;;;;20.48;4.20;;;;;;;8.92;97.95;101705.53;5082797;28;20031;-60
2022/11/10 01:51:21;;;;;;;17.50;4.05;;;;;;;8.95;98.89;101707.94;5076805;28;20036;-57
2022/11/10 01:53:51;;;;;;;14.30;3.80;;;;;;;8.88;98.13;101696.19;5069264;28;20655;-58
2022/11/10 01:56:17;;;;;;;16.50;3.95;;;;;;;8.93;98.73;101703.75;5075925;28;20040;-58
2022/11/10 01:58:48;;;;;;;17.63;4.00;;;;;;;8.87;98.30;101694.50;5078162;28;20032;-58
2022/11/10 02:01:13;;;;;;;18.58;4.00;;;;;;;8.90;98.77;101696.91;5080947;28;20044;-59
2022/11/10 02:03:49;;;;;;;20.88;4.20;;;;;;;8.91;98.58;101690.66;5080512;28;20505;-58
2022/11/10 02:06:18;;;;;;;19.25;3.83;;;;;;;8.86;98.80;101691.03;5080414;28;20030;-59
2022/11/10 02:08:45;;;;;;;17.73;4.20;;;;;;;8.84;98.45;101697.44;5078711;28;20399;-59
2022/11/10 02:11:10;;;;;;;19.33;4.03;;;;;;;8.87;98.39;101699.78;5079999;28;20544;-58
2022/11/10 02:13:36;;;;;;;21.35;4.32;;;;;;;8.87;98.52;101699.78;5079868;28;20031;-59
2022/11/10 02:16:01;;;;;;;15.35;3.70;;;;;;;8.87;98.54;101697.16;5079160;28;20036;-58
2022/11/10 02:18:26;;;;;;;18.10;3.78;;;;;;;8.87;98.52;101699.78;5074821;28;20112;-58
2022/11/10 02:20:52;;;;;;;19.48;4.22;;;;;;;8.87;98.63;101705.09;5064746;28;20101;-58
2022/11/10 02:23:30;;;;;;;16.35;3.55;;;;;;;8.83;98.59;101711.63;5079094;28;20071;-60
2022/11/10 02:25:55;;;;;;;24.15;4.00;;;;;;;8.85;98.74;101717.59;5079708;28;20036;-57
2022/11/10 02:28:21;;;;;;;16.58;3.67;;;;;;;8.81;98.23;101724.13;5076536;28;20043;-58
2022/11/10 02:30:47;;;;;;;17.25;4.10;;;;;;;8.81;98.38;101727.63;5076674;28;20059;-57
2022/11/10 02:33:12;;;;;;;18.58;4.00;;;;;;;8.81;98.87;101721.47;5080619;28;20556;-57
2022/11/10 02:35:38;;;;;;;19.20;4.07;;;;;;;8.79;98.29;101736.63;5075313;28;20081;-58
2022/11/10 02:38:03;;;;;;;15.55;3.92;;;;;;;8.79;98.92;101744.56;5075994;28;20114;-57
2022/11/10 02:40:28;;;;;;;19.65;4.10;;;;;;;8.77;99.04;101751.81;5075499;28;20028;-58
2022/11/10 02:42:54;;;;;;;18.70;4.20;;;;;;;8.78;99.24;101756.13;5077484;28;20028;-60
2022/11/10 02:45:19;;;;;;;18.08;3.90;;;;;;;8.77;98.79;101762.38;5078029;28;20197;-58
2022/11/10 02:47:46;;;;;;;15.75;3.80;;;;;;;8.74;99.22;101756.38;5078377;28;20048;-58
2022/11/10 02:50:11;;;;;;;12.52;3.30;;;;;;;8.74;98.88;101759.00;5079180;28;20514;-58
2022/11/10 02:52:36;;;;;;;16.02;3.80;;;;;;;8.75;99.13;101760.69;5077410;28;20020;-58
2022/11/10 02:55:03;;;;;;;15.68;3.40;;;;;;;8.71;99.13;101761.91;5077297;28;20166;-58
2022/11/10 02:57:28;;;;;;;17.10;3.65;;;;;;;8.71;99.05;101754.00;5077405;28;20085;-57
2022/11/10 02:59:53;;;;;;;17.13;3.80;;;;;;;8.67;98.86;101747.25;5077557;28;20032;-58
2022/11/10 03:02:19;;;;;;;20.95;4.43;;;;;;;8.71;99.07;101743.41;5077219;28;20032;-57
2022/11/10 03:04:44;;;;;;;18.63;4.03;;;;;;;8.67;99.03;101749.91;5077618;28;20508;-59
2022/11/10 03:07:09;;;;;;;19.67;3.95;;;;;;;8.67;99.15;101757.84;5077668;28;20036;-59
2022/11/10 03:09:34;;;;;;;17.55;4.00;;;;;;;8.65;99.23;101754.50;5079244;28;20040;-58
2022/11/10 03:12:00;;;;;;;18.27;3.55;;;;;;;8.63;99.10;101761.69;5077208;28;20028;-57
2022/11/10 03:14:25;;;;;;;19.85;4.00;;;;;;;8.64;98.82;101773.13;5077863;28;20032;-58
2022/11/10 03:16:50;;;;;;;20.40;4.57;;;;;;;8.61;99.46;101779.50;5076526;28;20039;-58
2022/11/10 03:19:15;;;;;;;15.88;3.80;;;;;;;8.62;99.93;101775.88;5078767;28;20067;-58
2022/11/10 03:21:41;;;;;;;17.10;3.75;;;;;;;8.59;99.20;101776.97;5071872;28;20561;-59
2022/11/10 03:24:06;;;;;;;20.15;4.22;;;;;;;8.57;99.59;101778.06;5077924;28;20061;-59
2022/11/10 03:26:31;;;;;;;16.23;4.10;;;;;;;8.57;99.51;101783.34;5069842;28;21022;-59
2022/11/10 03:28:56;;;;;;;16.38;3.83;;;;;;;8.55;99.51;101785.28;5079043;28;20036;-58
2022/11/10 03:31:22;;;;;;;15.43;3.90;;;;;;;8.58;99.97;101791.16;5073647;28;20105;-58
2022/11/10 03:33:47;;;;;;;19.20;3.80;;;;;;;8.51;99.42;101795.25;5076258;28;20038;-58
2022/11/10 03:36:12;;;;;;;16.23;3.88;;;;;;;8.50;99.78;101803.28;5077227;28;20047;-58
2022/11/10 03:38:37;;;;;;;19.92;3.97;;;;;;;8.50;99.63;101805.94;5067073;28;20040;-58
2022/11/10 03:41:03;;;;;;;17.60;3.85;;;;;;;8.46;100.00;101802.69;5073637;28;20028;-58
2022/11/10 03:43:28;;;;;;;16.05;4.05;;;;;;;8.46;99.85;101808.84;5077457;28;20392;-59
2022/11/10 03:45:53;;;;;;;16.80;3.55;;;;;;;8.47;100.00;101823.72;5074899;28;20048;-58
2022/11/10 03:48:19;;;;;;;17.80;4.28;;;;;;;8.45;99.98;101825.63;5069103;28;20025;-57
2022/11/10 03:50:44;;;;;;;19.38;4.03;;;;;;;8.43;100.00;101824.94;5071487;28;20351;-58
2022/11/10 03:53:09;;;;;;;14.65;3.97;;;;;;;8.42;99.88;101825.91;5077471;28;20035;-57
2022/11/10 03:55:35;;;;;;;19.52;3.83;;;;;;;8.40;100.00;101830.47;5076802;28;20036;-58
2022/11/10 03:58:02;;;;;;;22.13;4.32;;;;;;;8.41;100.00;101834.78;5079117;28;20039;-58
2022/11/10 04:00:28;;;;;;;19.48;4.20;;;;;;;8.37;100.00;101830.72;5073763;28;20040;-58
2022/11/10 04:02:53;;;;;;;17.90;4.10;;;;;;;8.38;100.00;101836.84;5069868;28;20395;-58
2022/11/10 04:10:55;;;;;;;17.40;4.38;;;;;;;8.31;100.00;101836.47;5068862;28;20109;-58
2022/11/10 04:16:04;;;;;;;18.77;4.15;;;;;;;8.29;100.00;101854.28;5077513;28;20093;-59
2022/11/10 04:18:29;;;;;;;14.93;4.03;;;;;;;8.29;100.00;101854.28;5075755;28;20036;-57
2022/11/10 04:20:57;;;;;;;18.48;4.22;;;;;;;8.28;100.00;101861.34;5074430;28;20107;-59
2022/11/10 04:23:27;;;;;;;24.48;4.22;;;;;;;8.28;100.00;101863.13;5077405;28;20463;-59
2022/11/10 04:28:41;;;;;;;22.67;4.80;;;;;;;8.23;100.00;101870.59;5078021;28;20047;-58
2022/11/10 04:31:07;;;;;;;19.25;3.97;;;;;;;8.21;100.00;101879.47;5080314;28;20028;-57
2022/11/10 04:33:32;;;;;;;17.50;4.32;;;;;;;8.21;100.00;101879.47;5082571;28;20047;-58
2022/11/10 04:35:58;;;;;;;22.00;4.30;;;;;;;8.19;100.00;101881.41;5080232;28;20071;-60
2022/11/10 04:38:23;;;;;;;21.90;4.40;;;;;;;8.23;100.00;101887.28;5080619;28;20039;-59
2022/11/10 04:40:48;;;;;;;22.45;4.93;;;;;;;8.21;100.00;101892.69;5077022;28;20032;-60
2022/11/10 04:43:14;;;;;;;21.17;4.07;;;;;;;8.19;100.00;101891.97;5072765;28;20126;-58
2022/11/10 04:45:39;;;;;;;22.67;4.40;;;;;;;8.21;100.00;101897.97;5080717;28;20058;-59
2022/11/10 04:48:05;;;;;;;20.92;4.30;;;;;;;8.19;100.00;101902.53;5080732;28;20038;-58
2022/11/10 04:50:30;;;;;;;17.02;3.88;;;;;;;8.19;100.00;101902.53;5077590;28;20047;-58
2022/11/10 04:52:55;;;;;;;20.33;4.13;;;;;;;8.19;100.00;101907.81;5073485;28;20036;-58
2022/11/10 04:55:20;;;;;;;16.90;3.92;;;;;;;8.21;100.00;101911.19;5066406;28;20036;-58
2022/11/10 04:57:46;;;;;;;23.73;4.28;;;;;;;8.20;100.00;101920.06;5074923;28;20543;-57
2022/11/10 05:00:11;;;;;;;19.48;4.03;;;;;;;8.24;100.00;101922.50;5079058;28;20040;-58
2022/11/10 05:02:37;;;;;;;21.38;4.43;;;;;;;8.19;100.00;101923.69;5080845;28;20031;-58
2022/11/10 05:05:02;;;;;;;18.50;4.05;;;;;;;8.18;100.00;101922.00;5078722;28;20572;-58
2022/11/10 05:07:28;;;;;;;18.77;4.13;;;;;;;8.17;100.00;101925.63;5075990;28;20032;-58
2022/11/10 05:09:53;;;;;;;18.73;4.05;;;;;;;8.18;100.00;101927.28;5079768;28;20126;-57
2022/11/10 05:12:19;;;;;;;18.45;3.95;;;;;;;8.19;100.00;101931.59;5079828;28;20433;-57
2022/11/10 05:14:44;;;;;;;16.90;3.90;;;;;;;8.17;100.00;101936.19;5079245;28;20107;-57
2022/11/10 05:17:09;;;;;;;14.63;4.00;;;;;;;8.17;100.00;101940.63;5077534;28;20031;-58
2022/11/10 05:19:35;;;;;;;19.20;4.22;;;;;;;8.15;100.00;101948.66;5080195;28;20032;-57
2022/11/10 05:22:00;;;;;;;21.42;4.07;;;;;;;8.14;100.00;101936.41;5080094;28;20040;-59
2022/11/10 05:24:25;;;;;;;21.02;4.60;;;;;;;8.14;100.00;101939.03;5081904;28;20089;-59
2022/11/10 05:26:50;;;;;;;22.02;4.45;;;;;;;8.14;100.00;101944.31;5078444;28;20077;-57
2022/11/10 05:29:16;;;;;;;18.08;4.15;;;;;;;8.12;100.00;101948.91;5081297;28;20048;-58
2022/11/10 05:31:41;;;;;;;16.77;4.00;;;;;;;8.11;100.00;101941.94;5075796;28;20032;-59
2022/11/10 05:34:06;;;;;;;20.13;4.10;;;;;;;8.10;100.00;101944.69;5076580;28;20803;-58
2022/11/10 05:36:31;;;;;;;20.42;3.95;;;;;;;8.07;100.00;101945.75;5081207;28;20533;-59
2022/11/10 05:38:57;;;;;;;19.52;3.97;;;;;;;8.05;100.00;101942.41;5080630;28;20040;-59
2022/11/10 05:41:22;;;;;;;18.30;4.15;;;;;;;8.05;100.00;101934.47;5080975;28;20247;-59
2022/11/10 05:43:47;;;;;;;21.08;4.63;;;;;;;8.02;100.00;101926.78;5080825;28;20054;-59
2022/11/10 05:46:13;;;;;;;19.75;4.00;;;;;;;8.00;100.00;101941.91;5072113;28;20166;-57
2022/11/10 05:48:38;;;;;;;17.75;4.20;;;;;;;7.96;100.00;101935.19;5076120;28;20028;-57
2022/11/10 05:51:04;;;;;;;21.30;4.57;;;;;;;7.98;100.00;101957.06;5072040;28;20484;-58
2022/11/10 05:53:29;;;;;;;22.95;4.35;;;;;;;7.96;100.00;101961.59;5074866;28;20081;-57
2022/11/10 05:55:54;;;;;;;16.88;3.97;;;;;;;7.94;100.00;101969.63;5081450;28;20032;-58
2022/11/10 05:58:20;;;;;;;18.80;4.35;;;;;;;7.92;100.00;101964.47;5081372;28;20114;-58
2022/11/10 06:00:45;;;;;;;18.35;4.45;;;;;;;7.93;100.00;101960.03;5071695;28;20109;-57
2022/11/10 06:03:16;;;;;;;19.60;4.60;;;;;;;7.92;100.00;101968.91;5084867;28;20040;-57
2022/11/10 06:05:42;;;;;;;20.10;4.20;;;;;;;7.88;100.00;101972.72;5083841;28;20056;-58
2022/11/10 06:08:08;;;;;;;20.05;3.90;;;;;;;7.87;100.00;101973.69;5084662;28;20074;-57
2022/11/10 06:10:35;;;;;;;20.42;4.45;;;;;;;7.86;100.00;101979.94;5083115;28;20126;-60
2022/11/10 06:13:01;;;;;;;18.48;4.18;;;;;;;7.85;100.00;101984.38;5077797;28;20810;-58
2022/11/10 06:15:26;;;;;;;20.90;4.60;;;;;;;7.86;100.00;101990.50;5077819;28;20028;-59
2022/11/10 06:17:53;;;;;;;20.75;4.13;;;;;;;7.86;100.00;101995.78;5075653;28;20505;-59
2022/11/10 06:20:19;;;;;;;18.15;4.20;;;;;;;7.84;100.00;101995.88;5076183;28;20028;-58
2022/11/10 06:23:00;;;;;;;21.65;4.03;;;;;;;7.84;100.00;101998.53;5079885;28;20040;-61
2022/11/10 06:25:27;;;;;;;20.02;4.20;;;;;;;7.81;100.00;101999.59;5080782;28;20560;-58
2022/11/10 06:27:52;;;;;;;21.58;4.53;;;;;;;7.79;100.00;101996.25;5074699;28;20027;-58
2022/11/10 06:30:18;;;;;;;18.92;4.25;;;;;;;7.80;100.00;101992.63;5074875;28;20028;-60
2022/11/10 06:32:44;;;;;;;18.33;4.75;;;;;;;7.79;100.00;101998.03;5071380;28;20052;-58
2022/11/10 06:35:10;;;;;;;19.33;3.95;;;;;;;7.80;100.00;102007.66;5074692;28;20118;-59
2022/11/10 06:37:37;;;;;;;20.52;4.10;;;;;;;7.79;100.00;102006.81;5074314;28;20372;-58
2022/11/10 06:40:04;;;;;;;19.20;4.20;;;;;;;7.77;100.00;102018.44;5072544;28;20031;-58
2022/11/10 06:42:29;;;;;;;20.15;4.30;;;;;;;7.75;100.00;102023.81;5072469;28;20458;-58
2022/11/10 06:44:54;;;;;;;17.70;4.45;;;;;;;7.77;100.00;102023.72;5073552;28;20132;-60
2022/11/10 06:47:19;;;;;;;23.73;4.93;;;;;;;7.75;100.00;102030.91;5073233;28;20031;-58
2022/11/10 06:49:45;;;;;;;20.40;4.30;;;;;;;7.74;100.00;102031.88;5077821;28;20096;-59
2022/11/10 06:52:10;;;;;;;22.55;4.60;;;;;;;7.73;100.00;102043.38;5073473;28;20482;-60
2022/11/10 06:54:35;;;;;;;17.83;4.15;;;;;;;7.72;100.00;102050.47;5070954;28;20036;-57
2022/11/10 06:57:01;;;;;;;24.10;4.35;;;;;;;7.70;100.00;102046.25;5073009;28;20028;-58
2022/11/10 06:59:26;;;;;;;21.38;4.68;;;;;;;7.73;100.00;102056.56;5068712;28;20677;-57
2022/11/10 07:01:51;;;;;;;18.60;4.32;;;;;;;7.72;100.00;102047.81;5070909;28;20036;-57
2022/11/10 07:04:16;;;;;;;27.25;5.43;;;;;;;7.76;100.00;102051.09;5068030;28;20062;-57
2022/11/10 07:06:42;;;;;;;25.88;5.53;;;;;;;7.77;100.00;102065.97;5073457;28;20028;-59
2022/11/10 07:09:07;;;;;;;23.13;5.43;;;;;;;7.77;100.00;102055.41;5075096;28;20097;-57
2022/11/10 07:11:33;;;;;;;21.65;5.20;;;;;;;7.78;100.00;102062.38;5070407;28;20512;-59
2022/11/10 07:13:58;;;;;;;21.70;4.60;;;;;;;7.78;100.00;102063.22;5072547;28;20028;-59
2022/11/10 07:16:24;;;;;;;23.67;4.90;;;;;;;7.80;100.00;102076.31;5071144;28;20343;-59
2022/11/10 07:18:49;;;;;;;21.70;4.82;;;;;;;7.80;100.00;102079.78;5070293;28;20609;-59
2022/11/10 07:21:14;;;;;;;24.08;5.10;;;;;;;7.83;100.00;102091.91;5075982;28;20075;-57
2022/11/10 07:23:40;;;;;;;20.13;4.30;;;;;;;7.85;100.00;102083.91;5070377;28;20028;-57
2022/11/10 07:26:06;;;;;;;22.10;4.57;;;;;;;7.86;100.00;102091.72;5073174;28;20043;-59
2022/11/10 07:28:31;;;;;;;18.55;4.20;;;;;;;7.87;100.00;102097.81;5071502;28;20535;-58
2022/11/10 07:30:56;;;;;;;19.38;3.90;;;;;;;7.87;100.00;102101.31;5071221;28;20031;-58
2022/11/10 07:33:22;;;;;;;22.42;5.05;;;;;;;7.90;100.00;102109.00;5070176;28;20536;-57
2022/11/10 07:35:59;;;;;;;22.55;4.47;;;;;;;7.97;100.00;102119.97;5072047;28;20494;-58
2022/11/10 07:38:24;;;;;;;18.83;4.20;;;;;;;7.96;100.00;102117.44;5072025;28;20721;-57
2022/11/10 07:40:51;;;;;;;20.08;4.57;;;;;;;7.97;100.00;102119.13;5075513;28;20044;-56
2022/11/10 07:43:21;;;;;;;21.77;4.40;;;;;;;8.01;100.00;102115.31;5073552;28;20031;-57
2022/11/10 07:45:48;;;;;;;23.52;4.50;;;;;;;7.98;100.00;102110.25;5074319;28;20079;-58
2022/11/10 07:48:13;;;;;;;19.75;4.18;;;;;;;8.07;100.00;102120.13;5069396;28;20560;-58
2022/11/10 07:50:38;;;;;;;19.15;4.25;;;;;;;8.11;100.00;102120.75;5079330;28;20032;-57
2022/11/10 07:53:06;;;;;;;21.25;4.97;;;;;;;8.12;100.00;102118.00;5077705;28;20040;-58
2022/11/10 07:55:33;;;;;;;17.05;4.15;;;;;;;8.18;100.00;102122.81;5078599;28;20081;-57
2022/11/10 07:57:59;;;;;;;21.85;4.30;;;;;;;8.21;100.00;102117.28;5078925;28;20127;-58
2022/11/10 08:00:25;;;;;;;21.08;4.47;;;;;;;8.24;100.00;102116.22;5079441;28;20127;-58
2022/11/10 08:02:51;;;;;;;19.73;4.47;;;;;;;8.31;100.00;102137.75;5077775;28;20020;-58
2022/11/10 08:05:16;;;;;;;19.30;4.50;;;;;;;8.32;100.00;102142.94;5080197;28;20035;-57
2022/11/10 08:07:42;;;;;;;21.55;4.78;;;;;;;8.37;100.00;102137.31;5083594;28;20038;-58
2022/11/10 08:10:08;;;;;;;21.40;4.78;;;;;;;8.41;100.00;102138.78;5080020;28;20046;-58
2022/11/10 08:12:33;;;;;;;23.52;4.80;;;;;;;8.44;100.00;102159.69;5082748;28;20558;-58
2022/11/10 08:14:59;;;;;;;20.33;4.22;;;;;;;8.47;100.00;102164.75;5082586;28;20074;-58
2022/11/10 08:17:24;;;;;;;19.70;4.47;;;;;;;8.50;100.00;102162.81;5081951;28;20422;-58
2022/11/10 08:19:49;;;;;;;17.35;4.18;;;;;;;8.54;100.00;102180.19;5077986;28;20516;-58
2022/11/10 08:22:14;;;;;;;22.17;4.63;;;;;;;8.56;100.00;102162.38;5076276;28;20401;-58
2022/11/10 08:24:40;;;;;;;17.35;4.57;;;;;;;8.63;100.00;102166.25;5079335;28;20039;-58
2022/11/10 08:27:05;;;;;;;18.27;4.47;;;;;;;8.65;100.00;102172.28;5081545;28;20039;-57
2022/11/10 08:29:30;;;;;;;18.92;4.70;;;;;;;8.68;100.00;102169.41;5080738;28;20035;-58
2022/11/10 08:31:56;;;;;;;15.20;4.15;;;;;;;8.73;100.00;102172.53;5079359;28;20050;-59
2022/11/10 08:34:21;;;;;;;19.90;4.70;;;;;;;8.78;100.00;102182.75;5079676;28;20054;-59
2022/11/10 08:36:47;;;;;;;20.63;4.78;;;;;;;8.83;100.00;102182.44;5081879;28;20081;-57
2022/11/10 08:39:13;;;;;;;20.67;4.38;;;;;;;8.87;100.00;102175.94;5083286;28;20086;-59
2022/11/10 08:41:38;;;;;;;19.02;5.22;;;;;;;8.91;100.00;102182.69;5084809;28;20554;-59
2022/11/10 08:44:04;;;;;;;20.65;4.40;;;;;;;8.96;100.00;102185.81;5086686;28;20030;-59
2022/11/10 08:46:29;;;;;;;20.92;4.70;;;;;;;8.98;100.00;102183.88;5085393;28;20116;-59
2022/11/10 08:48:54;;;;;;;18.25;4.53;;;;;;;9.04;100.00;102187.88;5082281;28;20063;-59
2022/11/10 08:51:21;;;;;;;17.02;4.20;;;;;;;9.13;100.00;102188.97;5083375;28;20434;-58
2022/11/10 08:53:46;;;;;;;21.75;4.68;;;;;;;9.16;100.00;102194.03;5086263;28;20398;-58
2022/11/10 08:56:11;;;;;;;17.75;4.43;;;;;;;9.23;100.00;102195.22;5085912;28;20028;-59
2022/11/10 08:58:37;;;;;;;21.33;4.97;;;;;;;9.29;100.00;102201.88;5081646;28;20082;-58
2022/11/10 09:01:07;;;;;;;22.67;4.82;;;;;;;9.35;99.65;102201.38;5083687;28;20133;-59
2022/11/10 09:03:32;;;;;;;19.38;4.32;;;;;;;9.40;99.33;102193.06;5084219;28;20544;-58
2022/11/10 09:05:57;;;;;;;22.00;4.78;;;;;;;9.46;98.64;102205.84;5087198;28;20118;-57
2022/11/10 09:08:23;;;;;;;19.17;4.88;;;;;;;9.52;98.46;102212.47;5084177;28;20043;-58
2022/11/10 09:10:51;;;;;;;20.63;4.32;;;;;;;9.55;98.87;102212.22;5076912;28;20047;-58
2022/11/10 09:13:17;;;;;;;16.70;4.38;;;;;;;9.65;97.60;102223.78;5078119;28;20044;-58
2022/11/10 09:15:43;;;;;;;17.95;4.35;;;;;;;9.65;98.04;102215.81;5085279;28;20031;-58
2022/11/10 09:18:11;;;;;;;22.13;4.80;;;;;;;9.67;98.98;102226.31;5081315;28;20502;-59
2022/11/10 09:20:37;;;;;;;21.08;4.47;;;;;;;9.74;98.53;102227.50;5085296;28;20479;-58
2022/11/10 09:23:14;;;;;;;18.33;4.50;;;;;;;9.78;97.86;102231.56;5085773;28;20154;-58
2022/11/10 09:25:40;;;;;;;24.33;4.72;;;;;;;9.86;97.68;102225.66;5085127;28;20070;-59
2022/11/10 09:28:12;;;;;;;19.80;4.28;;;;;;;9.92;97.93;102224.34;5074893;28;20038;-59
2022/11/10 09:30:38;;;;;;;23.55;4.28;;;;;;;9.98;97.45;102228.31;5081053;28;20463;-58
2022/11/10 09:33:03;;;;;;;21.98;4.97;;;;;;;10.02;97.59;102230.56;5084705;28;20028;-60
2022/11/10 09:35:28;;;;;;;21.77;4.68;;;;;;;10.06;96.83;102226.72;5083995;28;20044;-60
2022/11/10 09:37:53;;;;;;;18.38;4.22;;;;;;;10.13;96.76;102228.88;5074580;28;20020;-60
2022/11/10 09:40:23;;;;;;;20.25;4.53;;;;;;;10.20;96.17;102227.41;5072395;28;20494;-60
2022/11/10 09:42:53;;;;;;;18.52;4.53;;;;;;;10.25;95.81;102227.88;5073596;28;20032;-57
2022/11/10 09:45:18;;;;;;;23.08;4.40;;;;;;;10.34;95.38;102235.09;5078879;28;20040;-58
2022/11/10 09:48:01;;;;;;;19.23;4.38;;;;;;;10.43;94.43;102227.38;5075180;28;20395;-58
2022/11/10 09:50:33;;;;;;;16.05;4.10;;;;;;;10.48;94.03;102247.25;5070095;28;20036;-59
2022/11/10 09:52:59;;;;;;;23.65;4.20;;;;;;;10.58;93.62;102247.34;5076722;28;20126;-57
2022/11/10 09:55:39;;;;;;;20.63;4.20;;;;;;;10.63;93.21;102239.84;5074870;28;20089;-58
2022/11/10 09:58:05;;;;;;;20.55;4.45;;;;;;;10.69;93.39;102242.94;5073426;28;20051;-59
2022/11/10 10:00:34;;;;;;;15.68;4.20;;;;;;;10.70;93.94;102228.72;5076399;28;20032;-58
2022/11/10 10:03:05;;;;;;;19.15;4.35;;;;;;;10.76;92.67;102228.22;5072409;28;20032;-61
2022/11/10 10:05:56;;;;;;;20.00;4.45;;;;;;;10.93;92.49;102233.88;5075215;28;20032;-59
2022/11/10 10:08:52;;;;;;;18.52;4.10;;;;;;;10.89;92.91;102239.47;5071973;28;20035;-59
2022/11/10 10:11:48;;;;;;;14.73;4.05;;;;;;;10.94;92.39;102235.56;5073169;28;20028;-60
2022/11/10 10:14:23;;;;;;;22.42;4.20;;;;;;;10.98;92.40;102247.63;5074085;28;20036;-58
2022/11/10 10:17:20;;;;;;;16.40;3.95;;;;;;;11.05;92.28;102248.78;5074739;28;20490;-58
2022/11/10 10:19:59;;;;;;;19.52;3.90;;;;;;;11.12;92.10;102255.28;5073907;28;20415;-58
2022/11/10 10:22:48;;;;;;;17.27;3.60;;;;;;;11.21;90.60;102255.44;5072508;28;20476;-61
2022/11/10 10:25:22;;;;;;;18.40;3.80;;;;;;;11.25;90.02;102260.34;5068923;28;20071;-58
2022/11/10 10:28:12;;;;;;;21.42;4.85;;;;;;;11.34;90.09;102261.38;5076338;28;20052;-62
2022/11/10 10:30:40;;;;;;;19.08;4.10;;;;;;;11.42;90.16;102269.56;5082681;28;20069;-58
2022/11/10 10:33:18;;;;;;;17.88;4.13;;;;;;;11.42;89.11;102256.28;5081121;28;20051;-59
2022/11/10 10:35:46;;;;;;;21.52;3.97;;;;;;;11.52;88.29;102268.75;5085622;28;20028;-58
2022/11/10 10:38:26;;;;;;;16.13;3.75;;;;;;;11.58;88.92;102292.13;5078289;28;20712;-59
2022/11/10 10:40:57;;;;;;;14.23;3.70;;;;;;;11.61;87.20;102291.03;5068215;28;20475;-58
2022/11/10 10:43:22;;;;;;;19.60;4.20;;;;;;;11.68;87.34;102293.03;5072614;28;20027;-61
2022/11/10 10:46:09;;;;;;;19.70;3.90;;;;;;;11.71;87.20;102303.38;5074349;28;20529;-58
2022/11/10 10:48:35;;;;;;;18.73;4.15;;;;;;;11.71;86.79;102306.03;5072835;28;20077;-58
2022/11/10 10:51:00;;;;;;;19.38;3.63;;;;;;;11.79;86.02;102315.19;5072384;28;20111;-60
2022/11/10 10:53:25;;;;;;;17.33;3.63;;;;;;;11.89;84.95;102318.69;5071546;28;20046;-58
2022/11/10 10:56:00;;;;;;;16.38;3.75;;;;;;;12.01;84.48;102319.47;5068767;28;20067;-58
2022/11/10 10:58:27;;;;;;;14.32;3.47;;;;;;;11.96;84.53;102316.34;5069984;28;20127;-60
2022/11/10 11:01:03;;;;;;;17.25;3.63;;;;;;;12.11;84.11;102319.53;5073204;28;20043;-59
2022/11/10 11:03:36;;;;;;;13.25;3.80;;;;;;;12.06;83.38;102317.28;5078389;28;20040;-58
2022/11/10 11:06:25;;;;;;;13.85;3.40;;;;;;;12.08;84.85;102306.47;5075379;28;20542;-61
2022/11/10 11:09:05;;;;;;;10.48;3.17;;;;;;;12.11;84.01;102300.91;5079940;28;20059;-59
2022/11/10 11:11:33;;;;;;;16.20;3.50;;;;;;;12.14;83.26;102303.28;5078599;28;20032;-57
2022/11/10 11:14:28;;;;;;;17.42;3.70;;;;;;;12.22;83.47;102300.78;5077478;28;20019;-57
2022/11/10 11:16:56;;;;;;;16.63;3.38;;;;;;;12.18;83.23;102302.03;5075812;28;20028;-59
2022/11/10 11:19:24;;;;;;;13.38;3.25;;;;;;;12.20;83.14;102313.38;5076683;28;20060;-60
2022/11/10 11:22:02;;;;;;;15.00;3.20;;;;;;;12.24;82.93;102314.78;5077673;28;20920;-57
2022/11/10 11:24:58;;;;;;;16.30;3.30;;;;;;;12.32;83.43;102307.94;5076796;28;20347;-58
2022/11/10 11:27:42;;;;;;;15.73;3.10;;;;;;;12.35;83.20;102302.38;5079276;28;20487;-60
2022/11/10 11:30:19;;;;;;;13.82;3.28;;;;;;;12.46;81.21;102307.56;5077418;28;20073;-60
2022/11/10 11:33:16;;;;;;;12.52;3.35;;;;;;;12.57;80.89;102303.94;5068544;28;20459;-59
2022/11/10 11:35:54;;;;;;;13.48;2.95;;;;;;;12.69;80.13;102307.31;5069464;28;20591;-57